ADDS METAR Data INFO
IDs: Format: Raw Decoded Include TAF

Data at: 0030 UTC 11 Dec 2017

KE38 110015Z AUTO 22005KT 10SM CLR 07/M05 A3048 RMK AO2 T00731048
KE38 102355Z AUTO 24004KT 10SM CLR 09/M05 A3047 RMK AO2 T00931047 10160 20093
KE38 102335Z AUTO 20007KT 10SM CLR 11/M05 A3048 RMK AO2 T01111049
KE38 102315Z AUTO 22006KT 10SM CLR 12/M05 A3047 RMK AO2 T01231053
KE38 102255Z AUTO 25005KT 10SM CLR 13/M06 A3047 RMK AO2 T01281061
KE38 102235Z AUTO 24005KT 10SM CLR 15/M08 A3047 RMK AO2 T01461083
KE38 102215Z AUTO 21006KT 10SM CLR 16/M09 A3047 RMK AO2 T01551086
KE38 102155Z AUTO 00000KT 10SM CLR 15/M12 A3047 RMK AO2 T01531125
KE38 102135Z AUTO 00000KT 10SM CLR 16/M12 A3048 RMK AO2 T01591121
KE38 102115Z AUTO 00000KT 10SM CLR 16/M13 A3048 RMK AO2 T01551134
KE38 102055Z AUTO 19006KT 10SM CLR 16/M12 A3049 RMK AO2 T01601123
KE38 102035Z AUTO 17004KT 10SM CLR 16/M11 A3049 RMK AO2 T01551112
KE38 102015Z AUTO 17005KT 10SM CLR 15/M12 A3049 RMK AO2 T01531118
KE38 101955Z AUTO 15005KT 10SM CLR 15/M11 A3050 RMK AO2 T01531114
KE38 101935Z AUTO 13005KT 10SM CLR 16/M12 A3051 RMK AO2 T01551116
KE38 101915Z AUTO 16005KT 10SM CLR 15/M12 A3052 RMK AO2 T01481125
KE38 101855Z AUTO 20003KT 10SM CLR 14/M12 A3053 RMK AO2 T01401120
KE38 101835Z AUTO 18006KT 10SM CLR 15/M12 A3054 RMK AO2 T01471116
KE38 101815Z AUTO 18008KT 10SM CLR 14/M12 A3055 RMK AO2 T01441121
KE38 101755Z AUTO 00000KT 10SM CLR 14/M11 A3055 RMK AO2 T01351111 10140 21005
KE38 101735Z AUTO 18003KT 10SM CLR 13/M12 A3056 RMK AO2 T01331116
KE38 101715Z AUTO 20003KT 10SM CLR 12/M09 A3057 RMK AO2 T01231087
KE38 101655Z AUTO 00000KT 10SM CLR 11/M07 A3057 RMK AO2 T01101066
KE38 101635Z AUTO 00000KT 10SM CLR 11/M07 A3056 RMK AO2 T01101070
KE38 101615Z AUTO 00000KT 10SM CLR 11/M08 A3056 RMK AO2 T01111083
KE38 101555Z AUTO 00000KT 10SM CLR 10/M06 A3056 RMK AO2 T01031062
KE38 101535Z AUTO 00000KT 10SM CLR 08/M06 A3056 RMK AO2 T00781058
KE38 101515Z AUTO 24003KT 10SM CLR 06/M05 A3056 RMK AO2 T00561055
KE38 101455Z AUTO 23004KT 10SM CLR 02/M05 A3055 RMK AO2 T00241055
KE38 101435Z AUTO 21005KT 10SM CLR 02/M06 A3055 RMK AO2 T00161060
KE38 101415Z AUTO 21006KT 10SM CLR 01/M06 A3055 RMK AO2 T00141057
KE38 101355Z AUTO 22007KT 10SM CLR 01/M06 A3054 RMK AO2 T00051058
KE38 101335Z AUTO 21005KT 10SM CLR 00/M06 A3054 RMK AO2 T10031060
KE38 101315Z AUTO 24005KT 10SM CLR 00/M06 A3053 RMK AO2 T10031061
KE38 101255Z AUTO 25006KT 10SM CLR 01/M06 A3052 RMK AO2 T00061061
KE38 101235Z AUTO 20004KT 10SM CLR 00/M06 A3052 RMK AO2 T00001056
KE38 101215Z AUTO 22005KT 10SM CLR 00/M06 A3051 RMK AO2 T00011057
KE38 101155Z AUTO 20007KT 10SM CLR 01/M05 A3051 RMK AO2 T00141054 10027 21006
KE38 101135Z AUTO 20006KT 10SM CLR 01/M05 A3051 RMK AO2 T00051047
KE38 101115Z AUTO 22005KT 10SM CLR 00/M05 A3051 RMK AO2 T00011046
KE38 101055Z AUTO 23004KT 10SM CLR 00/M04 A3051 RMK AO2 T00001043
KE38 101035Z AUTO 22005KT 10SM CLR 00/M04 A3051 RMK AO2 T00001040
KE38 101015Z AUTO 21006KT 10SM CLR 00/M04 A3051 RMK AO2 T00031037
KE38 100955Z AUTO 21004KT 10SM CLR 01/M04 A3051 RMK AO2 T00091036
KE38 100935Z AUTO 21005KT 10SM CLR 00/M03 A3051 RMK AO2 T00041035
KE38 100915Z AUTO 21006KT 10SM CLR 00/M03 A3050 RMK AO2 T10021034
KE38 100855Z AUTO 21004KT 10SM CLR 00/M03 A3050 RMK AO2 T10031034
KE38 100835Z AUTO 22007KT 10SM CLR 00/M03 A3051 RMK AO2 T00001032
KE38 100815Z AUTO 22006KT 10SM CLR 01/M03 A3051 RMK AO2 T00051031
KE38 100755Z AUTO 22006KT 10SM CLR 00/M03 A3051 RMK AO2 T00011033
KE38 100735Z AUTO 23004KT 10SM CLR 00/M03 A3051 RMK AO2 T00011030
KE38 100715Z AUTO 20007KT 10SM CLR 01/M03 A3052 RMK AO2 T00091027
KE38 100655Z AUTO 22004KT 10SM CLR 01/M03 A3052 RMK AO2 T00091029
KE38 100635Z AUTO 22007KT 10SM CLR 03/M02 A3052 RMK AO2 T00261025
KE38 100615Z AUTO 22009KT 10SM CLR 01/M03 A3053 RMK AO2 T00111029
KE38 100555Z AUTO 25008KT 10SM CLR 03/M03 A3053 RMK AO2 T00261030 10105 20009 401381025
KE38 100535Z AUTO 24009KT 10SM CLR 02/M03 A3054 RMK AO2 T00211028
KE38 100515Z AUTO 24009KT 10SM CLR 02/M02 A3053 RMK AO2 T00201025
KE38 100455Z AUTO 22008KT 10SM CLR 01/M02 A3052 RMK AO2 T00131025
KE38 100435Z AUTO 25007KT 10SM CLR 02/M02 A3051 RMK AO2 T00221021
KE38 100415Z AUTO 22008KT 10SM CLR 01/M02 A3052 RMK AO2 T00131024
KE38 100355Z AUTO 24006KT 10SM CLR 02/M02 A3052 RMK AO2 T00201025
KE38 100335Z AUTO 23005KT 10SM CLR 02/M02 A3052 RMK AO2 T00201024
KE38 100315Z AUTO 23007KT 10SM CLR 01/M03 A3051 RMK AO2 T00111026
KE38 100255Z AUTO 21005KT 10SM CLR 02/M03 A3050 RMK AO2 T00231027
KE38 100235Z AUTO 19006KT 10SM CLR 04/M02 A3051 RMK AO2 T00351024
KE38 100215Z AUTO 20006KT 10SM CLR 03/M02 A3051 RMK AO2 T00251023
KE38 100155Z AUTO 20005KT 10SM CLR 03/M02 A3050 RMK AO2 T00251022
KE38 100135Z AUTO 24007KT 10SM CLR 04/M02 A3050 RMK AO2 T00381021
KE38 100115Z AUTO 23006KT 10SM CLR 05/M02 A3049 RMK AO2 T00481022
KE38 100055Z AUTO 21004KT 10SM CLR 03/M03 A3049 RMK AO2 T00301028
KE38 100035Z AUTO 24008KT 10SM CLR 03/M03 A3048 RMK AO2 T00251030
KE38 100015Z AUTO 00000KT 10SM CLR 09/M07 A3047 RMK AO2 T00901073
KE38 092355Z AUTO 00000KT 10SM CLR 10/M07 A3047 RMK AO2 T01011074 10138 20101
KE38 092335Z AUTO 00000KT 10SM CLR 12/M08 A3046 RMK AO2 T01171078
KE38 092315Z AUTO 00000KT 10SM CLR 13/M08 A3046 RMK AO2 T01261084
KE38 092255Z AUTO 00000KT 10SM CLR 13/M10 A3046 RMK AO2 T01301104
KE38 092235Z AUTO 02005KT 10SM CLR 13/M11 A3046 RMK AO2 T01321108
KE38 092215Z AUTO 00000KT 10SM CLR 14/M10 A3046 RMK AO2 T01351103
KE38 092155Z AUTO 09003KT 10SM CLR 13/M09 A3046 RMK AO2 T01341090
KE38 092135Z AUTO 06006KT 10SM CLR 14/M08 A3045 RMK AO2 T01361085
KE38 092115Z AUTO 00000KT 10SM CLR 14/M09 A3046 RMK AO2 T01361090
KE38 092055Z AUTO 00000KT 10SM CLR 13/M10 A3046 RMK AO2 T01311103
KE38 092035Z AUTO 02005KT 10SM CLR 13/M09 A3046 RMK AO2 T01321091
KE38 092015Z AUTO 03003KT 10SM CLR 13/M09 A3046 RMK AO2 T01311093
KE38 091955Z AUTO 35005KT 10SM CLR 13/M09 A3046 RMK AO2 T01281093
KE38 091935Z AUTO 35008KT 10SM CLR 13/M09 A3047 RMK AO2 T01261092
KE38 091915Z AUTO 00000KT 10SM CLR 13/M10 A3048 RMK AO2 T01271104
KE38 091855Z AUTO 00000KT 10SM CLR 12/M10 A3049 RMK AO2 T01241103
KE38 091835Z AUTO 00000KT 10SM CLR 12/M11 A3050 RMK AO2 T01241106
KE38 091815Z AUTO 00000KT 10SM CLR 12/M10 A3051 RMK AO2 T01201104
KE38 091755Z AUTO 35003KT 10SM CLR 12/M08 A3051 RMK AO2 T01201085 10120 21025
KE38 091735Z AUTO 00000KT 10SM CLR 11/M07 A3052 RMK AO2 T01131067
KE38 091715Z AUTO 22003KT 10SM CLR 10/M06 A3052 RMK AO2 T01001061
KE38 091655Z AUTO 00000KT 10SM CLR 09/M07 A3052 RMK AO2 T00901066
KE38 091635Z AUTO 21003KT 10SM CLR 08/M05 A3051 RMK AO2 T00801052
KE38 091615Z AUTO 22005KT 10SM CLR 07/M04 A3051 RMK AO2 T00711043
KE38 091555Z AUTO 21005KT 10SM CLR 06/M04 A3051 RMK AO2 T00601045
KE38 091535Z AUTO 25003KT 10SM CLR 05/M04 A3050 RMK AO2 T00491044
KE38 091515Z AUTO 23004KT 10SM CLR 04/M04 A3050 RMK AO2 T00391042
KE38 091455Z AUTO 23004KT 10SM CLR 03/M05 A3050 RMK AO2 T00251049
KE38 091435Z AUTO 23005KT 10SM CLR 01/M05 A3050 RMK AO2 T00141048
KE38 091415Z AUTO 23006KT 10SM CLR 00/M05 A3049 RMK AO2 T00021050
KE38 091355Z AUTO 24006KT 10SM CLR M01/M06 A3048 RMK AO2 T10131056
KE38 091335Z AUTO 24007KT 10SM CLR M02/M05 A3047 RMK AO2 T10171055
KE38 091315Z AUTO 24007KT 10SM CLR M02/M06 A3047 RMK AO2 T10241056
KE38 091255Z AUTO 24007KT 10SM CLR M02/M05 A3046 RMK AO2 T10231054
KE38 091235Z AUTO 22006KT 10SM CLR M02/M05 A3045 RMK AO2 T10191052